createdAt,value
2023-01-04T00:01:15.963Z,8.3
2023-01-04T00:06:40.206Z,8.3
2023-01-04T00:11:47.318Z,8.1
2023-01-04T00:16:58.906Z,8.2
2023-01-04T00:22:20.661Z,8.3
2023-01-04T00:27:27.817Z,8.1
2023-01-04T00:32:38.942Z,8.1
2023-01-04T00:38:08.607Z,8.1
2023-01-04T00:43:57.927Z,7.9
2023-01-04T00:49:22.212Z,7.9
2023-01-04T00:54:45.008Z,7.9
2023-01-04T01:00:07.457Z,7.8
2023-01-04T01:05:23.551Z,7.6
2023-01-04T01:10:31.104Z,7.4
2023-01-04T01:15:52.753Z,7.3
2023-01-04T01:21:29.686Z,7.2
2023-01-04T01:26:36.734Z,7.3
2023-01-04T01:31:59.642Z,7.4
2023-01-04T01:36:51.179Z,7.5
2023-01-04T01:42:13.925Z,7.5
2023-01-04T01:47:35.954Z,7.4
2023-01-04T01:52:58.228Z,7.5
2023-01-04T01:58:05.671Z,7.6
2023-01-04T02:03:30.478Z,7.5
2023-01-04T02:08:37.702Z,7.4
2023-01-04T02:14:00.431Z,7.4
2023-01-04T02:19:07.325Z,7.3
2023-01-04T02:24:29.315Z,7.3
2023-01-04T02:29:52.463Z,7.4
2023-01-04T02:35:15.607Z,7.4
2023-01-04T02:40:38.593Z,7.3
2023-01-04T02:45:53.405Z,7.3
2023-01-04T02:51:01.180Z,7.4
2023-01-04T02:56:08.126Z,7.3
2023-01-04T03:01:07.387Z,7.4
2023-01-04T03:06:00.611Z,7.4
2023-01-04T03:11:07.428Z,7.3
2023-01-04T03:16:19.922Z,7.3
2023-01-04T03:21:27.365Z,7.2
2023-01-04T03:26:18.754Z,7.1
2023-01-04T03:30:54.792Z,7.2
2023-01-04T03:40:21.990Z,7.1
2023-01-04T03:49:23.906Z,7.1
2023-01-04T03:54:15.024Z,7.3
2023-01-04T03:58:51.522Z,7.3
2023-01-04T04:03:43.569Z,7.4
2023-01-04T04:08:51.569Z,7.4
2023-01-04T04:13:27.457Z,7.4
2023-01-04T04:18:19.512Z,7.5
2023-01-04T04:23:11.222Z,7.5
2023-01-04T04:27:31.898Z,7.4
2023-01-04T04:32:07.962Z,7.5
2023-01-04T04:36:44.305Z,7.4
2023-01-04T04:41:36.126Z,7.4
2023-01-04T04:46:43.887Z,7.4
2023-01-04T04:51:35.364Z,7.4
2023-01-04T04:56:26.908Z,7.5
2023-01-04T05:01:34.381Z,7.4
2023-01-04T05:06:27.174Z,7.4
2023-01-04T05:11:18.786Z,7.4
2023-01-04T05:16:10.605Z,7.4
2023-01-04T05:21:02.615Z,7.4
2023-01-04T05:25:55.764Z,7.4
2023-01-04T05:31:02.778Z,7.3
2023-01-04T05:35:54.246Z,7.3
2023-01-04T05:40:45.843Z,7.3
2023-01-04T05:45:53.274Z,7.3
2023-01-04T05:50:29.050Z,7.3
2023-01-04T05:55:11.652Z,7.4
2023-01-04T06:00:08.775Z,7.3
2023-01-04T06:04:46.932Z,7.3
2023-01-04T06:09:39.566Z,7.3
2023-01-04T06:14:38.625Z,7.3
2023-01-04T06:19:30.679Z,7.3
2023-01-04T06:29:14.415Z,7.3
2023-01-04T06:34:06.144Z,7.3
2023-01-04T06:39:31.685Z,7.4
2023-01-04T06:44:44.001Z,7.4
2023-01-04T06:49:55.484Z,7.4
2023-01-04T06:55:02.988Z,7.5
2023-01-04T07:00:09.352Z,7.6
2023-01-04T07:05:53.004Z,7.7
2023-01-04T07:10:46.106Z,7.6
2023-01-04T07:16:11.594Z,7.6
2023-01-04T07:21:03.211Z,7.6
2023-01-04T07:26:15.965Z,7.8
2023-01-04T07:31:22.327Z,7.8
2023-01-04T07:36:32.301Z,7.9
2023-01-04T07:41:46.421Z,7.9
2023-01-04T07:46:56.747Z,7.9
2023-01-04T07:52:10.840Z,7.9
2023-01-04T07:57:08.763Z,7.9
2023-01-04T08:02:00.934Z,7.9
2023-01-04T08:06:56.498Z,7.9
2023-01-04T08:11:33.233Z,8
2023-01-04T08:16:08.914Z,7.9
2023-01-04T08:21:16.424Z,8.1
2023-01-04T08:26:07.692Z,8.1
2023-01-04T08:31:04.018Z,7.9
2023-01-04T08:36:27.812Z,8.1
2023-01-04T08:43:51.144Z,8.1
2023-01-04T08:49:01.794Z,7.9
2023-01-04T08:54:12.739Z,8
2023-01-04T08:59:10.524Z,8
2023-01-04T09:04:27.368Z,8
2023-01-04T09:14:40.444Z,7.9
2023-01-04T09:20:17.725Z,8
2023-01-04T09:25:25.978Z,8
2023-01-04T09:30:51.167Z,7.9
2023-01-04T09:36:35.564Z,8
2023-01-04T09:41:45.303Z,8
2023-01-04T09:48:09.721Z,8
2023-01-04T09:53:16.998Z,7.9
2023-01-04T09:58:51.362Z,8.1
2023-01-04T10:04:00.719Z,8.1
2023-01-04T10:09:07.986Z,8.1
2023-01-04T10:14:15.644Z,8.3
2023-01-04T10:23:02.718Z,8.5
2023-01-04T10:28:15.781Z,8.6
2023-01-04T10:34:00.215Z,8.3
2023-01-04T10:39:09.771Z,8.3
2023-01-04T10:45:04.996Z,7.9
2023-01-04T10:50:15.806Z,8.2
2023-01-04T10:55:27.838Z,8.2
2023-01-04T11:01:15.145Z,8.1
2023-01-04T11:06:24.240Z,8.3
2023-01-04T11:11:50.036Z,8.3
2023-01-04T11:16:59.154Z,8.3
2023-01-04T11:22:12.775Z,8.4
2023-01-04T11:28:38.145Z,8.6
2023-01-04T11:33:14.739Z,8.6
2023-01-04T11:38:06.588Z,8.7
2023-01-04T11:43:16.635Z,8.8
2023-01-04T11:48:31.245Z,9
2023-01-04T11:53:39.026Z,9.1
2023-01-04T11:59:01.728Z,9.8
2023-01-04T12:05:08.823Z,10.1
2023-01-04T12:10:36.817Z,10.8
2023-01-04T12:16:00.192Z,10.6
2023-01-04T12:21:10.989Z,10.3
2023-01-04T12:26:07.874Z,9.9
2023-01-04T12:31:16.837Z,9.6
2023-01-04T12:36:41.914Z,9.6
2023-01-04T12:42:10.288Z,9.7
2023-01-04T12:47:33.405Z,9.4
2023-01-04T12:54:27.191Z,9.4
2023-01-04T13:00:34.065Z,9.4
2023-01-04T13:07:00.398Z,9.3
2023-01-04T13:12:09.706Z,9.3
2023-01-04T13:17:22.498Z,9.3
2023-01-04T13:22:46.543Z,9.2
2023-01-04T13:28:13.936Z,9.2
2023-01-04T13:34:05.402Z,9.1
2023-01-04T13:39:31.463Z,9.1
2023-01-04T13:45:25.946Z,9
2023-01-04T13:50:56.347Z,8.9
2023-01-04T13:56:56.566Z,8.8
2023-01-04T14:02:12.071Z,8.6
2023-01-04T14:07:20.350Z,8.5
2023-01-04T14:12:43.057Z,8.4
2023-01-04T14:18:06.364Z,8.4
2023-01-04T14:23:19.320Z,8.3
2023-01-04T14:29:06.281Z,8.3
2023-01-04T14:34:13.998Z,8.1
2023-01-04T14:39:26.639Z,8
2023-01-04T14:44:37.624Z,7.9
2023-01-04T14:49:53.503Z,7.9
2023-01-04T14:55:00.884Z,7.8
2023-01-04T15:00:07.742Z,7.8
2023-01-04T15:05:02.080Z,7.8
2023-01-04T15:10:11.656Z,7.7
2023-01-04T15:15:25.571Z,7.6
2023-01-04T15:20:33.783Z,7.6
2023-01-04T15:25:42.751Z,7.5
2023-01-04T15:31:12.647Z,7.4
2023-01-04T15:36:40.133Z,7.4
2023-01-04T15:42:21.432Z,7.3
2023-01-04T15:47:50.797Z,7.3
2023-01-04T15:53:17.747Z,7.2
2023-01-04T15:58:34.359Z,7.2
2023-01-04T16:03:54.082Z,7.1
2023-01-04T16:09:05.970Z,7.1
2023-01-04T16:14:29.170Z,7.1
2023-01-04T16:19:57.383Z,7.1
2023-01-04T16:25:44.697Z,7
2023-01-04T16:31:07.828Z,7
2023-01-04T16:36:15.764Z,7
2023-01-04T16:42:10.862Z,6.9
2023-01-04T16:47:34.322Z,6.9
2023-01-04T16:52:41.424Z,6.9
2023-01-04T16:58:04.078Z,6.9
2023-01-04T17:03:36.987Z,6.8
2023-01-04T17:09:00.192Z,6.8
2023-01-04T17:15:59.869Z,6.8
2023-01-04T17:21:32.472Z,6.7
2023-01-04T17:26:40.577Z,6.6
2023-01-04T17:31:52.754Z,6.7
2023-01-04T17:37:16.439Z,6.7
2023-01-04T17:42:26.317Z,6.7
2023-01-04T17:47:36.605Z,6.6
2023-01-04T17:53:15.249Z,6.6
2023-01-04T17:58:28.235Z,6.6
2023-01-04T18:03:20.953Z,6.6
2023-01-04T18:09:03.043Z,6.6
2023-01-04T18:14:54.759Z,6.5
2023-01-04T18:20:24.832Z,6.5
2023-01-04T18:26:22.654Z,6.4
2023-01-04T18:32:06.027Z,6.4
2023-01-04T18:37:19.050Z,6.4
2023-01-04T18:42:42.925Z,6.5
2023-01-04T18:48:35.359Z,6.4
2023-01-04T18:53:28.977Z,6.4
2023-01-04T18:58:43.631Z,6.4
2023-01-04T19:03:56.174Z,6.4
2023-01-04T19:09:12.074Z,6.5
2023-01-04T19:14:19.814Z,6.4
2023-01-04T19:19:32.442Z,6.4
2023-01-04T19:24:39.938Z,6.4
2023-01-04T19:34:39.812Z,6.4
2023-01-04T19:39:47.206Z,6.3
2023-01-04T19:45:02.003Z,6.2
2023-01-04T19:49:54.118Z,6.1
2023-01-04T19:55:01.111Z,6.1
2023-01-04T20:00:24.106Z,6.1
2023-01-04T20:05:48.961Z,6.1
2023-01-04T20:11:04.349Z,6
2023-01-04T20:16:11.461Z,5.9
2023-01-04T20:21:25.706Z,5.9
2023-01-04T20:26:32.367Z,5.9
2023-01-04T20:31:43.830Z,5.8
2023-01-04T20:36:52.886Z,5.8
2023-01-04T20:42:07.797Z,5.9
2023-01-04T20:47:21.176Z,5.9
2023-01-04T20:52:28.389Z,5.9
2023-01-04T20:57:54.480Z,5.8
2023-01-04T21:03:09.490Z,5.8
2023-01-04T21:08:17.240Z,5.6
2023-01-04T21:13:25.700Z,5.7
2023-01-04T21:18:17.813Z,5.8
2023-01-04T21:23:24.811Z,5.8
2023-01-04T21:28:32.629Z,5.8
2023-01-04T21:33:40.110Z,5.8
2023-01-04T21:38:52.302Z,5.8
2023-01-04T21:44:06.028Z,5.9
2023-01-04T21:49:13.125Z,5.9
2023-01-04T21:54:20.094Z,5.9
2023-01-04T21:59:35.300Z,5.9
2023-01-04T22:04:14.018Z,5.9
2023-01-04T22:09:36.916Z,5.9
2023-01-04T22:14:48.239Z,5.8
2023-01-04T22:19:56.367Z,5.9
2023-01-04T22:25:10.543Z,5.9
2023-01-04T22:30:22.460Z,5.9
2023-01-04T22:35:29.624Z,5.9
2023-01-04T22:40:41.089Z,5.8
2023-01-04T22:45:48.064Z,5.6
2023-01-04T22:50:41.139Z,5.4
2023-01-04T22:56:21.796Z,5.4
2023-01-04T23:01:16.182Z,5.3
2023-01-04T23:06:09.183Z,5.1
2023-01-04T23:11:16.358Z,5.1
2023-01-04T23:16:28.042Z,5
2023-01-04T23:21:40.260Z,5
2023-01-04T23:26:32.302Z,4.9
2023-01-04T23:31:23.714Z,4.8
2023-01-04T23:36:31.342Z,4.8
2023-01-04T23:41:23.409Z,4.6
2023-01-04T23:46:14.413Z,4.5
2023-01-04T23:51:35.653Z,4.4
2023-01-04T23:56:58.820Z,4.4
